Terminal Aerodrome Forecast
Issued by NWS

Home | Current Version | Previous Version | Text Only | Print | Product List | Glossary On
Versions: 1 2 3 4 5 6 7 8 9 10 11 12 13 14 15 16 17 18 19 20 21 22 23 24 25 26 27 28 29 30 31 32 33
000
FTUS45 KGJT 262320
TAFCNY
TAF
KCNY 262320Z 2700/2724 26010G20KT P6SM SCT100
     FM270300 20005KT P6SM SCT080 SCT120
     FM270600 23007KT P6SM VCSH BKN060
     FM270900 26007KT P6SM BKN080
     FM271200 28012G20KT P6SM SCT150
     FM271900 29020KT P6SM FEW250=

USA.gov is the U.S. government's official web portal to all federal, state and local government web resources and services.